createdAt,value
2018-09-19T00:01:46.377Z,5.03
2018-09-19T00:04:15.415Z,4.70
2018-09-19T00:06:44.311Z,4.40
2018-09-19T00:09:13.459Z,4.20
2018-09-19T00:11:43.119Z,4.20
2018-09-19T00:14:12.463Z,4.77
2018-09-19T00:16:41.438Z,5.23
2018-09-19T00:19:10.628Z,4.60
2018-09-19T00:21:39.750Z,4.73
2018-09-19T00:24:09.051Z,5.28
2018-09-19T00:26:38.219Z,4.70
2018-09-19T00:29:07.539Z,5.07
2018-09-19T00:31:36.740Z,5.10
2018-09-19T00:34:05.942Z,5.80
2018-09-19T00:36:34.834Z,5.07
2018-09-19T00:39:04.008Z,5.33
2018-09-19T00:41:32.982Z,4.77
2018-09-19T00:44:01.857Z,4.67
2018-09-19T00:46:30.961Z,4.97
2018-09-19T00:48:59.951Z,5.13
2018-09-19T00:51:28.982Z,5.43
2018-09-19T00:53:57.850Z,5.67
2018-09-19T00:56:26.835Z,4.87
2018-09-19T00:58:55.779Z,5.03
2018-09-19T01:01:24.724Z,5.10
2018-09-19T01:03:53.861Z,5.67
2018-09-19T01:06:22.794Z,5.17
2018-09-19T01:08:51.837Z,5.33
2018-09-19T01:11:20.774Z,5.70
2018-09-19T01:13:55.387Z,5.53
2018-09-19T01:16:24.371Z,5.23
2018-09-19T01:18:53.460Z,5.87
2018-09-19T01:21:22.646Z,5.00
2018-09-19T01:23:51.631Z,5.67
2018-09-19T01:26:20.518Z,5.00
2018-09-19T01:28:49.332Z,5.40
2018-09-19T01:31:18.459Z,5.27
2018-09-19T01:33:47.771Z,5.53
2018-09-19T01:36:16.816Z,5.50
2018-09-19T01:38:46.008Z,5.80
2018-09-19T01:41:14.980Z,5.23
2018-09-19T01:43:43.863Z,5.33
2018-09-19T01:46:13.464Z,5.60
2018-09-19T01:48:42.995Z,4.93
2018-09-19T01:51:12.271Z,4.67
2018-09-19T01:53:41.632Z,5.07
2018-09-19T01:56:10.495Z,5.03
2018-09-19T01:58:39.626Z,5.10
2018-09-19T02:01:08.824Z,4.70
2018-09-19T02:03:37.708Z,5.43
2018-09-19T02:06:06.804Z,5.33
2018-09-19T02:08:35.865Z,5.07
2018-09-19T02:11:04.951Z,5.23
2018-09-19T02:13:33.979Z,5.33
2018-09-19T02:16:03.110Z,4.47
2018-09-19T02:18:32.024Z,4.90
2018-09-19T02:21:01.118Z,4.37
2018-09-19T02:23:30.653Z,4.33
2018-09-19T02:25:59.523Z,5.47
2018-09-19T02:28:28.529Z,4.63
2018-09-19T02:30:57.656Z,4.50
2018-09-19T02:33:26.595Z,4.70
2018-09-19T02:35:55.580Z,3.73
2018-09-19T02:38:24.583Z,4.13
2018-09-19T02:40:53.596Z,4.07
2018-09-19T02:43:22.597Z,4.10
2018-09-19T02:45:51.539Z,4.17
2018-09-19T02:48:20.463Z,3.33
2018-09-19T02:50:49.709Z,4.33
2018-09-19T02:53:19.164Z,3.33
2018-09-19T02:55:48.012Z,4.50
2018-09-19T02:58:17.203Z,3.63
2018-09-19T03:00:46.251Z,4.10
2018-09-19T03:03:15.367Z,3.83
2018-09-19T03:05:44.291Z,4.00
2018-09-19T03:08:13.430Z,4.47
2018-09-19T03:10:42.361Z,3.93
2018-09-19T03:13:11.264Z,3.83
2018-09-19T03:15:40.352Z,4.27
2018-09-19T03:18:09.300Z,4.47
2018-09-19T03:20:38.229Z,4.47
2018-09-19T03:23:07.249Z,4.50
2018-09-19T03:25:36.149Z,4.27
2018-09-19T03:28:05.014Z,4.47
2018-09-19T03:30:34.144Z,4.87
2018-09-19T03:33:03.204Z,4.87
2018-09-19T03:35:32.375Z,4.50
2018-09-19T03:38:01.761Z,4.80
2018-09-19T03:40:30.834Z,4.90
2018-09-19T03:42:59.732Z,5.37
2018-09-19T03:45:28.860Z,5.20
2018-09-19T03:47:57.746Z,4.93
2018-09-19T03:50:26.660Z,5.33
2018-09-19T03:52:55.763Z,4.40
2018-09-19T03:55:24.683Z,5.33
2018-09-19T03:57:53.683Z,5.40
2018-09-19T04:00:22.810Z,4.67
2018-09-19T04:02:52.491Z,5.23
2018-09-19T04:05:21.692Z,5.00
2018-09-19T04:07:50.892Z,5.23
2018-09-19T04:10:20.268Z,5.37
2018-09-19T04:12:49.222Z,5.00
2018-09-19T04:15:18.640Z,5.53
2018-09-19T04:17:47.732Z,5.97
2018-09-19T04:20:16.615Z,6.53
2018-09-19T04:22:45.656Z,5.87
2018-09-19T04:25:14.703Z,5.80
2018-09-19T04:27:43.719Z,5.50
2018-09-19T04:30:13.066Z,5.67
2018-09-19T04:32:42.145Z,6.63
2018-09-19T04:35:11.141Z,7.23
2018-09-19T04:37:40.604Z,6.70
2018-09-19T04:40:09.910Z,6.17
2018-09-19T04:42:39.363Z,6.77
2018-09-19T04:45:08.370Z,6.50
2018-09-19T04:47:37.847Z,6.20
2018-09-19T04:50:06.898Z,7.27
2018-09-19T04:52:36.102Z,6.93
2018-09-19T04:55:05.958Z,6.83
2018-09-19T04:57:34.899Z,6.43
2018-09-19T05:00:03.908Z,6.90
2018-09-19T05:02:32.766Z,6.77
2018-09-19T05:05:01.652Z,6.80
2018-09-19T05:07:30.707Z,6.70
2018-09-19T05:09:59.672Z,6.33
2018-09-19T05:12:28.670Z,6.30
2018-09-19T05:14:57.986Z,7.10
2018-09-19T05:17:26.971Z,7.07
2018-09-19T05:19:56.102Z,6.37
2018-09-19T05:22:25.213Z,6.70
2018-09-19T05:24:54.099Z,6.77
2018-09-19T05:27:23.102Z,6.43
2018-09-19T05:29:52.194Z,6.37
2018-09-19T05:32:21.030Z,6.43
2018-09-19T05:34:49.990Z,7.33
2018-09-19T05:37:19.095Z,7.53
2018-09-19T05:39:47.968Z,5.77
2018-09-19T05:42:17.139Z,6.27
2018-09-19T05:44:46.230Z,6.37
2018-09-19T05:47:15.125Z,6.20
2018-09-19T05:49:44.027Z,6.60
2018-09-19T05:52:13.030Z,6.93
2018-09-19T05:54:41.973Z,6.83
2018-09-19T05:57:10.932Z,6.83
2018-09-19T05:59:40.154Z,6.60
2018-09-19T06:02:09.117Z,5.77
2018-09-19T06:04:38.052Z,5.73
2018-09-19T06:07:07.205Z,6.80
2018-09-19T06:09:36.155Z,5.97
2018-09-19T06:12:05.302Z,7.35
2018-09-19T06:14:34.455Z,6.87
2018-09-19T06:17:03.280Z,7.10
2018-09-19T06:19:32.155Z,6.00
2018-09-19T06:22:01.088Z,5.27
2018-09-19T06:24:29.923Z,6.33
2018-09-19T06:26:58.814Z,6.50
2018-09-19T06:29:27.859Z,6.20
2018-09-19T06:31:56.851Z,5.40
2018-09-19T06:34:25.999Z,6.03
2018-09-19T06:36:55.089Z,5.80
2018-09-19T06:39:23.971Z,5.57
2018-09-19T06:41:52.827Z,5.97
2018-09-19T06:44:22.307Z,5.60
2018-09-19T06:46:51.153Z,5.60
2018-09-19T06:49:20.079Z,6.07
2018-09-19T06:51:49.032Z,6.33
2018-09-19T06:54:18.004Z,5.80
2018-09-19T06:56:46.889Z,5.83
2018-09-19T06:59:15.923Z,5.47
2018-09-19T07:01:44.799Z,6.30
2018-09-19T07:04:13.666Z,5.87
2018-09-19T07:06:42.745Z,5.83
2018-09-19T07:09:11.918Z,5.83
2018-09-19T07:11:40.779Z,5.83
2018-09-19T07:14:09.906Z,6.10
2018-09-19T07:16:38.841Z,5.57
2018-09-19T07:19:07.743Z,5.53
2018-09-19T07:21:36.808Z,5.53
2018-09-19T07:24:06.181Z,5.57
2018-09-19T07:26:35.088Z,5.37
2018-09-19T07:29:04.147Z,5.90
2018-09-19T07:31:33.058Z,5.60
2018-09-19T07:34:02.145Z,5.30
2018-09-19T07:36:31.123Z,5.20
2018-09-19T07:39:00.036Z,6.10
2018-09-19T07:41:29.134Z,5.57
2018-09-19T07:43:58.158Z,5.23
2018-09-19T07:46:27.370Z,5.57
2018-09-19T07:48:56.411Z,5.50
2018-09-19T07:51:25.538Z,5.30
2018-09-19T07:53:54.422Z,5.77
2018-09-19T07:56:23.263Z,5.43
2018-09-19T07:58:52.247Z,5.80
2018-09-19T08:01:21.119Z,5.63
2018-09-19T08:03:49.979Z,5.13
2018-09-19T08:06:19.123Z,5.17
2018-09-19T08:08:48.011Z,5.90
2018-09-19T08:11:16.947Z,4.90
2018-09-19T08:13:45.942Z,4.70
2018-09-19T08:16:14.940Z,5.23
2018-09-19T08:18:43.856Z,5.47
2018-09-19T08:21:13.215Z,4.90
2018-09-19T08:23:42.070Z,4.90
2018-09-19T08:26:10.956Z,5.40
2018-09-19T08:28:40.072Z,5.13
2018-09-19T08:31:09.015Z,5.57
2018-09-19T08:33:37.958Z,5.10
2018-09-19T08:36:07.310Z,5.30
2018-09-19T08:38:36.275Z,5.03
2018-09-19T08:41:05.280Z,5.17
2018-09-19T08:43:34.488Z,5.07
2018-09-19T08:46:03.379Z,4.80
2018-09-19T08:48:33.091Z,5.83
2018-09-19T08:51:02.786Z,5.27
2018-09-19T08:53:32.139Z,5.67
2018-09-19T08:56:01.083Z,5.10
2018-09-19T08:58:30.455Z,5.87
2018-09-19T09:00:59.339Z,5.33
2018-09-19T09:03:28.223Z,4.93
2018-09-19T09:05:57.154Z,5.10
2018-09-19T09:08:25.991Z,6.07
2018-09-19T09:10:54.889Z,5.43
2018-09-19T09:13:23.932Z,5.60
2018-09-19T09:15:52.928Z,5.30
2018-09-19T09:18:21.804Z,4.83
2018-09-19T09:20:50.846Z,5.40
2018-09-19T09:23:19.766Z,4.90
2018-09-19T09:25:48.611Z,4.90
2018-09-19T09:28:17.779Z,5.07
2018-09-19T09:30:46.769Z,4.97
2018-09-19T09:33:15.675Z,4.87
2018-09-19T09:35:44.996Z,4.53
2018-09-19T09:38:13.859Z,5.03
2018-09-19T09:40:42.734Z,4.90
2018-09-19T09:43:11.651Z,5.10
2018-09-19T09:45:40.533Z,5.20
2018-09-19T09:48:09.625Z,5.03
2018-09-19T09:50:38.904Z,5.07
2018-09-19T09:53:07.965Z,5.30
2018-09-19T09:55:37.536Z,5.20
2018-09-19T09:58:06.846Z,5.57
2018-09-19T10:00:41.545Z,5.60
2018-09-19T10:03:11.671Z,5.50
2018-09-19T10:05:40.892Z,5.37
2018-09-19T10:08:09.954Z,5.40
2018-09-19T10:10:39.615Z,5.80
2018-09-19T10:13:08.527Z,5.40
2018-09-19T10:15:37.392Z,5.57
2018-09-19T10:18:06.549Z,6.30
2018-09-19T10:20:35.552Z,5.50
2018-09-19T10:23:04.502Z,6.40
2018-09-19T10:25:33.705Z,5.80
2018-09-19T10:28:02.522Z,5.33
2018-09-19T10:30:31.381Z,5.47
2018-09-19T10:33:01.200Z,5.53
2018-09-19T10:35:31.173Z,5.97
2018-09-19T10:38:00.101Z,5.80
2018-09-19T10:40:29.143Z,5.43
2018-09-19T10:42:58.446Z,5.17
2018-09-19T10:45:27.435Z,5.77
2018-09-19T10:47:56.429Z,5.83
2018-09-19T10:50:25.324Z,5.93
2018-09-19T10:52:54.414Z,6.10
2018-09-19T10:55:23.362Z,5.87
2018-09-19T10:57:52.859Z,6.20
2018-09-19T11:00:22.090Z,6.67
2018-09-19T11:02:51.207Z,6.20
2018-09-19T11:05:20.306Z,5.43
2018-09-19T11:07:49.190Z,5.47
2018-09-19T11:10:18.415Z,5.10
2018-09-19T11:12:47.366Z,5.73
2018-09-19T11:15:16.687Z,4.90
2018-09-19T11:17:45.920Z,5.73
2018-09-19T11:20:14.920Z,5.57
2018-09-19T11:22:43.806Z,5.13
2018-09-19T11:25:12.896Z,5.50
2018-09-19T11:27:41.927Z,5.43
2018-09-19T11:30:11.227Z,6.40
2018-09-19T11:32:40.235Z,5.13
2018-09-19T11:35:09.051Z,5.37
2018-09-19T11:37:38.228Z,6.73
2018-09-19T11:40:07.807Z,6.43
2018-09-19T11:42:36.889Z,5.33
2018-09-19T11:45:05.890Z,5.13
2018-09-19T11:47:34.844Z,5.33
2018-09-19T11:50:03.735Z,5.40
2018-09-19T11:52:32.563Z,4.67
2018-09-19T11:55:01.557Z,5.03
2018-09-19T11:57:30.407Z,4.80
2018-09-19T11:59:59.310Z,5.17
2018-09-19T12:02:28.353Z,4.73
2018-09-19T12:04:57.241Z,4.90
2018-09-19T12:07:26.180Z,5.10
2018-09-19T12:09:55.200Z,5.43
2018-09-19T12:12:24.050Z,5.20
2018-09-19T12:14:53.059Z,4.73
2018-09-19T12:17:22.154Z,4.87
2018-09-19T12:19:51.059Z,4.80
2018-09-19T12:22:20.155Z,4.10
2018-09-19T12:24:49.071Z,4.63
2018-09-19T12:27:17.967Z,4.70
2018-09-19T12:29:46.908Z,4.50
2018-09-19T12:32:16.059Z,4.53
2018-09-19T12:34:44.958Z,4.73
2018-09-19T12:37:13.903Z,5.10
2018-09-19T12:39:43.082Z,4.97
2018-09-19T12:42:12.100Z,5.20
2018-09-19T12:44:41.400Z,5.37
2018-09-19T12:47:10.504Z,5.00
2018-09-19T12:49:39.549Z,5.00
2018-09-19T12:52:08.382Z,4.37
2018-09-19T12:54:37.407Z,4.70
2018-09-19T12:57:06.692Z,4.50
2018-09-19T12:59:35.769Z,5.13
2018-09-19T13:02:04.885Z,4.90
2018-09-19T13:04:33.923Z,5.63
2018-09-19T13:07:02.892Z,6.07
2018-09-19T13:09:31.902Z,5.50
2018-09-19T13:12:00.781Z,4.90
2018-09-19T13:14:29.671Z,5.20
2018-09-19T13:16:58.763Z,5.37
2018-09-19T13:19:27.770Z,4.27
2018-09-19T13:21:56.676Z,6.67
2018-09-19T13:24:25.811Z,5.87
2018-09-19T13:26:54.783Z,5.37
2018-09-19T13:29:23.619Z,5.30
2018-09-19T13:31:53.162Z,5.43
2018-09-19T13:34:22.090Z,5.50
2018-09-19T13:36:51.039Z,5.33
2018-09-19T13:39:20.075Z,5.20
2018-09-19T13:41:49.092Z,5.60
2018-09-19T13:44:18.084Z,5.67
2018-09-19T13:46:47.106Z,5.63
2018-09-19T13:49:26.569Z,5.20
2018-09-19T13:51:55.968Z,5.07
2018-09-19T13:54:25.238Z,5.63
2018-09-19T13:56:54.285Z,5.17
2018-09-19T13:59:23.642Z,5.77
2018-09-19T14:01:52.587Z,5.70
2018-09-19T14:04:21.561Z,5.47
2018-09-19T14:06:50.785Z,5.20
2018-09-19T14:09:19.692Z,5.87
2018-09-19T14:11:48.667Z,5.90
2018-09-19T14:14:17.668Z,5.57
2018-09-19T14:16:46.595Z,5.73
2018-09-19T14:19:15.847Z,5.47
2018-09-19T14:21:45.157Z,5.10
2018-09-19T14:24:14.075Z,5.27
2018-09-19T14:26:43.763Z,5.20
2018-09-19T14:29:13.615Z,4.97
2018-09-19T14:31:42.619Z,5.77
2018-09-19T14:34:11.664Z,5.80
2018-09-19T14:36:40.943Z,5.87
2018-09-19T14:39:09.847Z,5.47
2018-09-19T14:41:39.128Z,4.70
2018-09-19T14:44:08.228Z,5.57
2018-09-19T14:46:37.198Z,4.77
2018-09-19T14:49:06.951Z,5.40
2018-09-19T14:51:36.011Z,4.90
2018-09-19T14:54:05.079Z,4.93
2018-09-19T14:56:33.971Z,5.50
2018-09-19T14:59:03.180Z,4.60
2018-09-19T15:01:32.343Z,4.70
2018-09-19T15:04:01.387Z,5.23
2018-09-19T15:06:30.685Z,4.53
2018-09-19T15:08:59.675Z,5.20
2018-09-19T15:11:28.668Z,4.67
2018-09-19T15:13:57.699Z,4.70
2018-09-19T15:16:26.602Z,4.87
2018-09-19T15:18:55.469Z,4.47
2018-09-19T15:21:24.662Z,4.60
2018-09-19T15:23:53.807Z,5.10
2018-09-19T15:26:23.026Z,5.27
2018-09-19T15:28:52.322Z,4.77
2018-09-19T15:31:21.503Z,5.07
2018-09-19T15:33:50.596Z,5.67
2018-09-19T15:36:20.074Z,5.43
2018-09-19T15:38:49.428Z,5.43
2018-09-19T15:41:18.379Z,6.20
2018-09-19T15:43:47.703Z,5.40
2018-09-19T15:46:16.669Z,5.20
2018-09-19T15:48:45.853Z,6.20
2018-09-19T15:51:15.217Z,5.67
2018-09-19T15:53:44.549Z,6.60
2018-09-19T15:56:13.511Z,5.70
2018-09-19T15:58:42.713Z,5.77
2018-09-19T16:01:11.752Z,5.73
2018-09-19T16:03:41.099Z,5.60
2018-09-19T16:06:10.542Z,5.43
2018-09-19T16:08:39.515Z,5.70
2018-09-19T16:11:08.588Z,5.23
2018-09-19T16:16:38.395Z,5.40
2018-09-19T16:19:07.596Z,5.17
2018-09-19T16:21:36.551Z,5.43
2018-09-19T16:24:05.451Z,5.60
2018-09-19T16:26:34.624Z,5.03
2018-09-19T16:29:03.515Z,5.03
2018-09-19T16:31:32.491Z,4.90
2018-09-19T16:34:02.379Z,4.97
2018-09-19T16:36:31.295Z,4.93
2018-09-19T16:39:01.033Z,5.27
2018-09-19T16:41:30.601Z,5.20
2018-09-19T16:43:59.700Z,5.03
2018-09-19T16:46:28.603Z,5.20
2018-09-19T16:48:57.700Z,5.07
2018-09-19T16:51:26.648Z,4.97
2018-09-19T16:53:55.658Z,5.17
2018-09-19T16:56:24.844Z,5.37
2018-09-19T16:58:53.891Z,5.30
2018-09-19T17:01:22.828Z,5.30
2018-09-19T17:03:52.137Z,5.90
2018-09-19T17:06:20.971Z,5.87
2018-09-19T17:08:49.999Z,5.80
2018-09-19T17:11:19.156Z,5.47
2018-09-19T17:13:48.343Z,5.77
2018-09-19T17:16:17.647Z,5.43
2018-09-19T17:18:46.921Z,5.43
2018-09-19T17:21:15.893Z,5.93
2018-09-19T17:23:44.839Z,6.37
2018-09-19T17:26:13.887Z,5.73
2018-09-19T17:28:44.201Z,5.50
2018-09-19T17:31:13.146Z,5.70
2018-09-19T17:33:42.300Z,5.70
2018-09-19T17:36:11.164Z,5.63
2018-09-19T17:38:40.052Z,5.37
2018-09-19T17:41:09.284Z,5.33
2018-09-19T17:43:38.169Z,5.70
2018-09-19T17:46:07.084Z,6.37
2018-09-19T17:48:36.222Z,5.43
2018-09-19T17:51:05.163Z,5.33
2018-09-19T17:53:34.046Z,5.80
2018-09-19T17:56:03.172Z,5.67
2018-09-19T17:58:32.055Z,6.00
2018-09-19T18:01:00.911Z,5.13
2018-09-19T18:03:30.135Z,4.87
2018-09-19T18:05:59.546Z,5.30
2018-09-19T18:08:28.510Z,5.13
2018-09-19T18:10:57.476Z,5.20
2018-09-19T18:13:26.307Z,4.80
2018-09-19T18:15:55.173Z,5.30
2018-09-19T18:18:24.310Z,4.90
2018-09-19T18:20:53.499Z,4.90
2018-09-19T18:23:22.504Z,5.27
2018-09-19T18:25:52.255Z,5.00
2018-09-19T18:28:22.211Z,4.60
2018-09-19T18:30:51.315Z,4.93
2018-09-19T18:33:20.527Z,5.03
2018-09-19T18:35:49.456Z,5.23
2018-09-19T18:38:18.531Z,5.30
2018-09-19T18:40:47.682Z,4.90
2018-09-19T18:43:16.662Z,5.03
2018-09-19T18:45:45.824Z,4.97
2018-09-19T18:48:15.056Z,5.07
2018-09-19T18:50:44.257Z,4.93
2018-09-19T18:53:13.367Z,5.00
2018-09-19T18:55:42.487Z,4.60
2018-09-19T18:58:11.484Z,5.00
2018-09-19T19:00:40.379Z,5.47
2018-09-19T19:03:09.470Z,4.43
2018-09-19T19:05:38.636Z,5.17
2018-09-19T19:08:07.707Z,4.90
2018-09-19T19:10:36.685Z,4.60
2018-09-19T19:13:06.966Z,4.73
2018-09-19T19:15:35.936Z,5.10
2018-09-19T19:18:05.026Z,4.87
2018-09-19T19:20:33.909Z,5.03
2018-09-19T19:23:02.796Z,4.23
2018-09-19T19:25:32.258Z,4.37
2018-09-19T19:28:01.107Z,5.30
2018-09-19T19:30:30.059Z,4.83
2018-09-19T19:32:58.995Z,4.90
2018-09-19T19:35:27.826Z,5.20
2018-09-19T19:37:56.815Z,4.70
2018-09-19T19:40:25.768Z,5.03
2018-09-19T19:42:55.076Z,4.93
2018-09-19T19:45:23.963Z,4.80
2018-09-19T19:47:53.199Z,5.27
2018-09-19T19:50:22.100Z,4.60
2018-09-19T19:52:50.967Z,4.30
2018-09-19T19:55:19.996Z,4.17
2018-09-19T19:57:48.866Z,4.67
2018-09-19T20:00:17.736Z,4.87
2018-09-19T20:02:46.791Z,4.97
2018-09-19T20:05:15.628Z,5.03
2018-09-19T20:07:44.459Z,4.40
2018-09-19T20:10:13.620Z,4.30
2018-09-19T20:12:42.476Z,4.00
2018-09-19T20:15:11.341Z,4.47
2018-09-19T20:17:40.292Z,4.40
2018-09-19T20:20:09.227Z,3.93
2018-09-19T20:22:38.055Z,3.90
2018-09-19T20:25:07.085Z,3.97
2018-09-19T20:27:35.972Z,4.10
2018-09-19T20:30:05.062Z,4.33
2018-09-19T20:32:34.329Z,4.10
2018-09-19T20:35:03.281Z,3.70
2018-09-19T20:37:32.183Z,3.90
2018-09-19T20:40:01.163Z,4.07
2018-09-19T20:42:30.065Z,3.63
2018-09-19T20:44:59.095Z,4.13
2018-09-19T20:47:28.255Z,3.37
2018-09-19T20:49:57.397Z,3.30
2018-09-19T20:52:26.264Z,3.60
2018-09-19T20:54:55.487Z,2.87
2018-09-19T20:57:24.363Z,3.57
2018-09-19T20:59:53.227Z,3.30
2018-09-19T21:02:22.255Z,3.20
2018-09-19T21:04:51.484Z,3.00
2018-09-19T21:07:20.355Z,3.33
2018-09-19T21:09:49.325Z,3.10
2018-09-19T21:12:18.391Z,3.30
2018-09-19T21:14:47.273Z,3.03
2018-09-19T21:17:16.459Z,3.17
2018-09-19T21:19:45.459Z,3.17
2018-09-19T21:22:14.378Z,3.33
2018-09-19T21:24:43.531Z,3.37
2018-09-19T21:27:12.528Z,3.27
2018-09-19T21:29:41.447Z,3.50
2018-09-19T21:32:10.451Z,3.47
2018-09-19T21:34:39.367Z,3.70
2018-09-19T21:37:08.368Z,3.73
2018-09-19T21:39:37.419Z,3.40
2018-09-19T21:42:06.327Z,3.73
2018-09-19T21:44:35.211Z,3.33
2018-09-19T21:47:04.204Z,3.60
2018-09-19T21:49:33.039Z,3.43
2018-09-19T21:52:02.168Z,3.40
2018-09-19T21:54:31.248Z,3.90
2018-09-19T21:57:00.174Z,3.90
2018-09-19T21:59:29.007Z,3.80
2018-09-19T22:01:58.048Z,3.47
2018-09-19T22:04:26.991Z,3.60
2018-09-19T22:06:55.833Z,4.07
2018-09-19T22:09:24.982Z,3.87
2018-09-19T22:11:53.864Z,3.97
2018-09-19T22:14:22.829Z,3.97
2018-09-19T22:16:51.891Z,4.23
2018-09-19T22:19:21.001Z,4.00
2018-09-19T22:21:50.011Z,4.00
2018-09-19T22:24:19.175Z,3.63
2018-09-19T22:26:48.235Z,3.77
2018-09-19T22:29:17.111Z,3.93
2018-09-19T22:31:46.183Z,3.20
2018-09-19T22:34:15.027Z,3.40
2018-09-19T22:36:43.884Z,3.93
2018-09-19T22:39:12.923Z,3.80
2018-09-19T22:41:41.818Z,3.90
2018-09-19T22:44:10.684Z,3.70
2018-09-19T22:46:39.581Z,4.40
2018-09-19T22:49:08.435Z,3.97
2018-09-19T22:51:37.296Z,4.10
2018-09-19T22:54:06.536Z,3.83
2018-09-19T22:56:35.383Z,4.27
2018-09-19T22:59:04.328Z,3.93
2018-09-19T23:01:33.311Z,3.40
2018-09-19T23:04:02.124Z,4.00
2018-09-19T23:06:31.109Z,3.53
2018-09-19T23:09:00.286Z,3.63
2018-09-19T23:11:29.183Z,4.50
2018-09-19T23:13:58.254Z,3.77
2018-09-19T23:16:27.375Z,3.57
2018-09-19T23:18:56.324Z,3.77
2018-09-19T23:21:25.288Z,3.97
2018-09-19T23:23:54.394Z,4.10
2018-09-19T23:26:23.231Z,4.20
2018-09-19T23:28:52.182Z,4.37
2018-09-19T23:31:21.363Z,4.47
2018-09-19T23:33:50.340Z,4.17
2018-09-19T23:36:19.163Z,4.20
2018-09-19T23:38:48.177Z,4.30
2018-09-19T23:41:17.015Z,4.33
2018-09-19T23:43:45.890Z,4.20
2018-09-19T23:46:15.136Z,4.20
2018-09-19T23:48:44.204Z,4.90
2018-09-19T23:51:13.055Z,4.27
2018-09-19T23:53:42.002Z,4.10
2018-09-19T23:56:10.907Z,3.50
2018-09-19T23:58:39.743Z,4.30
